createdAt,value
2023-01-21T00:00:15.224Z,100931.78
2023-01-21T00:02:42.767Z,100934.47
2023-01-21T00:05:10.135Z,100929.38
2023-01-21T00:07:37.452Z,100926.84
2023-01-21T00:10:05.376Z,100934.47
2023-01-21T00:12:32.708Z,100933.75
2023-01-21T00:15:00.132Z,100932.88
2023-01-21T00:17:27.336Z,100925.91
2023-01-21T00:19:54.721Z,100934.59
2023-01-21T00:22:22.148Z,100920.75
2023-01-21T00:24:49.467Z,100934.75
2023-01-21T00:27:16.803Z,100939.03
2023-01-21T00:29:43.986Z,100931.13
2023-01-21T00:32:11.284Z,100932.19
2023-01-21T00:34:38.719Z,100915.00
2023-01-21T00:37:06.101Z,100936.50
2023-01-21T00:39:33.540Z,100939.19
2023-01-21T00:42:00.944Z,100938.38
2023-01-21T00:44:28.328Z,100940.69
2023-01-21T00:46:55.658Z,100934.22
2023-01-21T00:49:22.972Z,100922.97
2023-01-21T00:51:50.226Z,100922.97
2023-01-21T00:54:17.607Z,100935.16
2023-01-21T00:56:44.923Z,100937.75
2023-01-21T00:59:12.593Z,100950.56
2023-01-21T01:01:40.167Z,100950.56
2023-01-21T01:04:07.692Z,100945.47
2023-01-21T01:06:35.252Z,100957.38
2023-01-21T01:09:02.658Z,100952.28
2023-01-21T01:11:30.962Z,100961.94
2023-01-21T01:13:59.595Z,100956.03
2023-01-21T01:16:26.913Z,100959.53
2023-01-21T01:18:54.391Z,100960.38
2023-01-21T01:21:22.770Z,100950.94
2023-01-21T01:23:52.628Z,100956.16
2023-01-21T01:26:21.493Z,100955.31
2023-01-21T01:28:49.053Z,100952.72
2023-01-21T01:31:18.816Z,100964.47
2023-01-21T01:33:47.579Z,100957.81
2023-01-21T01:36:17.816Z,100964.75
2023-01-21T01:38:45.189Z,100963.03
2023-01-21T01:41:21.535Z,100964.75
2023-01-21T01:43:58.948Z,100962.88
2023-01-21T01:46:29.983Z,100968.25
2023-01-21T01:49:06.667Z,100971.44
2023-01-21T01:51:50.482Z,100967.38
2023-01-21T01:54:23.430Z,100974.41
2023-01-21T01:56:55.348Z,100980.41
2023-01-21T01:59:22.971Z,100972.63
2023-01-21T02:01:50.373Z,100960.75
2023-01-21T02:04:30.062Z,100969.50
2023-01-21T02:06:58.394Z,100969.38
2023-01-21T02:09:30.095Z,100971.25
2023-01-21T02:12:03.033Z,100973.72
2023-01-21T02:14:32.093Z,100966.91
2023-01-21T02:17:12.727Z,100970.38
2023-01-21T02:20:10.943Z,100970.38
2023-01-21T02:22:46.852Z,100961.06
2023-01-21T02:25:35.958Z,100963.66
2023-01-21T02:28:27.568Z,100953.50
2023-01-21T02:31:31.872Z,100950.94
2023-01-21T02:34:01.806Z,100948.41
2023-01-21T02:36:37.118Z,100946.81
2023-01-21T02:39:22.143Z,100948.41
2023-01-21T02:42:13.089Z,100948.41
2023-01-21T02:44:44.564Z,100943.31
2023-01-21T02:47:40.963Z,100938.22
2023-01-21T02:50:28.975Z,100935.69
2023-01-21T02:53:01.699Z,100937.44
2023-01-21T02:55:47.191Z,100940.00
2023-01-21T02:58:18.895Z,100939.06
2023-01-21T03:01:04.384Z,100945.13
2023-01-21T03:03:47.293Z,100950.28
2023-01-21T03:06:30.488Z,100950.44
2023-01-21T03:09:16.539Z,100944.38
2023-01-21T03:11:51.632Z,100926.44
2023-01-21T03:14:49.330Z,100941.94
2023-01-21T03:17:33.787Z,100939.38
2023-01-21T03:20:18.706Z,100936.88
2023-01-21T03:22:48.097Z,100936.03
2023-01-21T03:25:17.226Z,100936.09
2023-01-21T03:27:48.420Z,100943.88
2023-01-21T03:30:18.704Z,100930.19
2023-01-21T03:32:50.456Z,100935.41
2023-01-21T03:35:37.482Z,100938.78
2023-01-21T03:38:14.258Z,100941.44
2023-01-21T03:40:48.271Z,100952.56
2023-01-21T03:43:15.666Z,100952.56
2023-01-21T03:45:55.398Z,100937.19
2023-01-21T03:48:31.791Z,100937.31
2023-01-21T03:51:13.973Z,100949.19
2023-01-21T03:53:42.413Z,100935.53
2023-01-21T03:56:09.730Z,100944.13
2023-01-21T03:58:37.485Z,100939.03
2023-01-21T04:01:04.909Z,100923.50
2023-01-21T04:03:32.183Z,100937.56
2023-01-21T04:05:59.523Z,100919.53
2023-01-21T04:08:26.830Z,100918.53
2023-01-21T04:10:54.182Z,100932.34
2023-01-21T04:13:21.445Z,100942.75
2023-01-21T04:15:48.801Z,100929.25
2023-01-21T04:18:16.352Z,100931.84
2023-01-21T04:20:46.821Z,100935.34
2023-01-21T04:23:14.165Z,100924.28
2023-01-21T04:25:41.409Z,100937.94
2023-01-21T04:28:08.871Z,100927.75
2023-01-21T04:30:36.385Z,100945.75
2023-01-21T04:33:03.821Z,100929.63
2023-01-21T04:35:31.288Z,100922.66
2023-01-21T04:37:58.636Z,100937.31
2023-01-21T04:40:26.064Z,100935.66
2023-01-21T04:42:53.508Z,100934.84
2023-01-21T04:45:21.035Z,100923.06
2023-01-21T04:47:48.336Z,100916.19
2023-01-21T04:50:16.658Z,100912.78
2023-01-21T04:52:44.082Z,100905.91
2023-01-21T04:55:11.892Z,100916.34
2023-01-21T04:57:39.202Z,100901.09
2023-01-21T05:00:08.880Z,100922.31
2023-01-21T05:02:36.294Z,100914.47
2023-01-21T05:05:03.887Z,100914.72
2023-01-21T05:07:31.208Z,100911.38
2023-01-21T05:09:58.465Z,100907.16
2023-01-21T05:12:25.754Z,100910.56
2023-01-21T05:14:54.976Z,100903.78
2023-01-21T05:17:22.193Z,100903.06
2023-01-21T05:19:51.124Z,100896.22
2023-01-21T05:22:18.759Z,100901.44
2023-01-21T05:24:46.128Z,100898.09
2023-01-21T05:27:13.461Z,100891.25
2023-01-21T05:29:40.952Z,100898.19
2023-01-21T05:32:08.168Z,100895.72
2023-01-21T05:34:35.648Z,100893.25
2023-01-21T05:37:02.945Z,100900.06
2023-01-21T05:39:30.175Z,100895.09
2023-01-21T05:41:57.395Z,100883.31
2023-01-21T05:44:24.677Z,100888.28
2023-01-21T05:46:51.904Z,100890.00
2023-01-21T05:49:20.038Z,100880.81
2023-01-21T05:51:47.504Z,100886.66
2023-01-21T05:54:15.032Z,100898.72
2023-01-21T05:56:42.405Z,100908.16
2023-01-21T05:59:10.081Z,100906.53
2023-01-21T06:01:37.487Z,100897.88
2023-01-21T06:04:04.978Z,100906.59
2023-01-21T06:06:32.235Z,100890.25
2023-01-21T06:08:59.541Z,100903.28
2023-01-21T06:11:26.952Z,100897.44
2023-01-21T06:13:54.403Z,100892.34
2023-01-21T06:16:21.613Z,100896.59
2023-01-21T06:18:48.842Z,100894.97
2023-01-21T06:21:16.200Z,100898.38
2023-01-21T06:23:43.568Z,100902.66
2023-01-21T06:26:10.938Z,100882.59
2023-01-21T06:28:38.196Z,100891.50
2023-01-21T06:31:05.775Z,100888.97
2023-01-21T06:33:33.126Z,100901.03
2023-01-21T06:36:00.305Z,100899.44
2023-01-21T06:38:27.591Z,100889.13
2023-01-21T06:40:55.084Z,100898.69
2023-01-21T06:43:22.542Z,100899.44
2023-01-21T06:45:50.148Z,100896.16
2023-01-21T06:48:17.610Z,100892.84
2023-01-21T06:50:44.987Z,100885.25
2023-01-21T06:53:12.341Z,100882.78
2023-01-21T06:55:39.936Z,100867.47
2023-01-21T06:58:07.247Z,100867.47
2023-01-21T07:00:34.715Z,100872.59
2023-01-21T07:03:02.204Z,100880.16
2023-01-21T07:05:29.732Z,100879.28
2023-01-21T07:07:58.205Z,100889.47
2023-01-21T07:10:26.184Z,100860.53
2023-01-21T07:12:53.497Z,100829.13
2023-01-21T07:15:20.947Z,100868.03
2023-01-21T07:17:48.548Z,100856.69
2023-01-21T07:20:16.141Z,100872.09
2023-01-21T07:22:43.451Z,100882.16
2023-01-21T07:25:10.810Z,100861.19
2023-01-21T07:27:38.135Z,100875.09
2023-01-21T07:30:06.773Z,100862.94
2023-01-21T07:32:34.055Z,100866.16
2023-01-21T07:35:01.383Z,100857.59
2023-01-21T07:37:28.637Z,100863.13
2023-01-21T07:39:56.748Z,100863.06
2023-01-21T07:42:24.079Z,100853.75
2023-01-21T07:44:51.423Z,100859.56
2023-01-21T07:47:18.900Z,100852.84
2023-01-21T07:49:46.266Z,100845.06
2023-01-21T07:52:13.890Z,100839.06
2023-01-21T07:54:41.083Z,100844.94
2023-01-21T07:57:08.635Z,100838.84
2023-01-21T07:59:35.873Z,100826.09
2023-01-21T08:02:03.597Z,100829.53
2023-01-21T08:04:31.142Z,100822.72
2023-01-21T08:06:59.108Z,100814.25
2023-01-21T08:09:26.667Z,100824.31
2023-01-21T08:11:54.062Z,100824.31
2023-01-21T08:14:21.542Z,100821.00
2023-01-21T08:16:48.933Z,100814.16
2023-01-21T08:19:16.495Z,100812.41
2023-01-21T08:21:43.875Z,100797.78
2023-01-21T08:24:11.320Z,100812.41
2023-01-21T08:26:38.877Z,100795.53
2023-01-21T08:29:06.336Z,100788.69
2023-01-21T08:31:33.815Z,100800.47
2023-01-21T08:34:01.122Z,100797.16
2023-01-21T08:36:28.491Z,100775.97
2023-01-21T08:38:58.905Z,100777.75
2023-01-21T08:41:26.334Z,100790.56
2023-01-21T08:43:53.803Z,100778.63
2023-01-21T08:46:21.230Z,100778.75
2023-01-21T08:48:48.698Z,100779.69
2023-01-21T08:51:16.103Z,100766.00
2023-01-21T08:53:43.568Z,100764.47
2023-01-21T08:56:11.051Z,100769.56
2023-01-21T08:58:38.411Z,100767.06
2023-01-21T09:01:10.741Z,100760.25
2023-01-21T09:03:38.461Z,100758.38
2023-01-21T09:06:06.745Z,100743.09
2023-01-21T09:08:34.412Z,100739.88
2023-01-21T09:11:02.827Z,100748.19
2023-01-21T09:13:35.587Z,100746.59
2023-01-21T09:16:02.968Z,100740.53
2023-01-21T09:18:30.352Z,100743.09
2023-01-21T09:21:02.005Z,100740.22
2023-01-21T09:23:32.558Z,100739.53
2023-01-21T09:26:07.446Z,100736.19
2023-01-21T09:28:37.649Z,100730.25
2023-01-21T09:31:07.949Z,100735.44
2023-01-21T09:33:37.861Z,100722.63
2023-01-21T09:36:07.702Z,100724.38
2023-01-21T09:38:35.319Z,100715.69
2023-01-21T09:41:34.089Z,100722.63
2023-01-21T09:44:23.098Z,100726.00
2023-01-21T09:46:59.030Z,100731.09
2023-01-21T09:49:33.909Z,100731.09
2023-01-21T09:52:19.611Z,100734.38
2023-01-21T09:54:47.124Z,100736.19
2023-01-21T09:57:26.688Z,100763.25
2023-01-21T10:00:28.203Z,100781.13
2023-01-21T10:03:16.683Z,100786.16
2023-01-21T10:05:44.205Z,100785.34
2023-01-21T10:08:17.445Z,100788.69
2023-01-21T10:10:52.619Z,100768.34
2023-01-21T10:13:32.487Z,100768.34
2023-01-21T10:16:16.538Z,100769.28
2023-01-21T10:18:48.600Z,100760.59
2023-01-21T10:21:37.901Z,100753.25
2023-01-21T10:24:19.257Z,100760.94
2023-01-21T10:26:49.993Z,100767.81
2023-01-21T10:29:19.916Z,100766.94
2023-01-21T10:31:52.097Z,100764.41
2023-01-21T10:34:20.814Z,100756.78
2023-01-21T10:37:16.485Z,100755.16
2023-01-21T10:40:12.784Z,100760.38
2023-01-21T10:43:01.186Z,100754.59
2023-01-21T10:45:39.409Z,100747.63
2023-01-21T10:48:35.546Z,100751.78
2023-01-21T10:51:24.204Z,100746.59
2023-01-21T10:54:15.307Z,100758.38
2023-01-21T10:56:43.395Z,100755.84
2023-01-21T10:59:15.695Z,100744.88
2023-01-21T11:01:47.857Z,100745.84
2023-01-21T11:04:17.455Z,100755.28
2023-01-21T11:06:47.439Z,100741.50
2023-01-21T11:09:16.825Z,100736.53
2023-01-21T11:11:47.226Z,100752.06
2023-01-21T11:14:19.860Z,100726.44
2023-01-21T11:16:52.080Z,100731.44
2023-01-21T11:19:31.543Z,100736.88
2023-01-21T11:22:17.937Z,100738.50
2023-01-21T11:24:52.306Z,100735.03
2023-01-21T11:27:29.436Z,100737.56
2023-01-21T11:29:57.922Z,100731.53
2023-01-21T11:32:28.460Z,100736.78
2023-01-21T11:35:10.521Z,100735.13
2023-01-21T11:37:39.445Z,100735.13
2023-01-21T11:40:13.374Z,100730.03
2023-01-21T11:42:53.478Z,100733.41
2023-01-21T11:45:29.869Z,100730.03
2023-01-21T11:47:59.775Z,100719.75
2023-01-21T11:50:36.542Z,100736.88
2023-01-21T11:53:20.486Z,100733.53
2023-01-21T11:55:50.492Z,100740.34
2023-01-21T11:58:32.446Z,100724.94
2023-01-21T12:01:09.527Z,100738.50
2023-01-21T12:03:46.599Z,100746.97
2023-01-21T12:06:32.367Z,100741.88
2023-01-21T12:09:05.766Z,100735.03
2023-01-21T12:11:33.879Z,100724.91
2023-01-21T12:14:22.995Z,100733.41
2023-01-21T12:17:16.954Z,100729.94
2023-01-21T12:20:01.274Z,100739.59
2023-01-21T12:22:41.956Z,100730.28
2023-01-21T12:25:55.837Z,100736.88
2023-01-21T12:28:35.125Z,100743.81
2023-01-21T12:31:24.383Z,100741.34
2023-01-21T12:34:13.238Z,100731.91
2023-01-21T12:36:49.360Z,100744.53
2023-01-21T12:39:25.754Z,100737.00
2023-01-21T12:42:06.705Z,100724.16
2023-01-21T12:44:46.337Z,100742.09
2023-01-21T12:47:54.548Z,100736.88
2023-01-21T12:50:42.956Z,100748.13
2023-01-21T12:53:27.945Z,100732.66
2023-01-21T12:56:17.979Z,100742.19
2023-01-21T12:58:57.829Z,100744.63
2023-01-21T13:01:59.766Z,100748.91
2023-01-21T13:04:50.655Z,100753.22
2023-01-21T13:07:32.817Z,100748.91
2023-01-21T13:10:10.319Z,100743.81
2023-01-21T13:12:41.925Z,100754.63
2023-01-21T13:15:16.236Z,100745.31
2023-01-21T13:17:48.515Z,100752.94
2023-01-21T13:20:22.785Z,100750.19
2023-01-21T13:23:03.824Z,100762.09
2023-01-21T13:25:31.720Z,100758.75
2023-01-21T13:28:15.067Z,100758.53
2023-01-21T13:31:02.196Z,100765.34
2023-01-21T13:33:55.721Z,100768.56
2023-01-21T13:36:42.818Z,100765.91
2023-01-21T13:39:44.744Z,100779.69
2023-01-21T13:42:28.809Z,100778.75
2023-01-21T13:45:15.206Z,100778.63
2023-01-21T13:47:56.768Z,100787.19
2023-01-21T13:50:39.500Z,100780.38
2023-01-21T13:53:15.941Z,100783.72
2023-01-21T13:55:57.421Z,100783.59
2023-01-21T13:58:42.954Z,100791.34
2023-01-21T14:01:30.686Z,100795.53
2023-01-21T14:04:03.277Z,100802.34
2023-01-21T14:06:44.785Z,100797.28
2023-01-21T14:09:32.973Z,100788.56
2023-01-21T14:12:11.888Z,100806.50
2023-01-21T14:15:06.519Z,100795.41
2023-01-21T14:18:09.069Z,100802.00
2023-01-21T14:21:04.936Z,100814.16
2023-01-21T14:23:57.576Z,100816.66
2023-01-21T14:26:43.665Z,100825.81
2023-01-21T14:29:47.768Z,100818.38
2023-01-21T14:32:44.406Z,100822.59
2023-01-21T14:35:48.719Z,100827.72
2023-01-21T14:38:29.376Z,100825.94
2023-01-21T14:41:10.291Z,100839.47
2023-01-21T14:43:38.429Z,100827.56
2023-01-21T14:46:27.096Z,100844.56
2023-01-21T14:49:08.880Z,100841.09
2023-01-21T14:51:42.385Z,100846.28
2023-01-21T14:54:12.295Z,100859.97
2023-01-21T14:56:40.529Z,100855.69
2023-01-21T14:59:35.526Z,100854.13
2023-01-21T15:02:32.394Z,100854.88
2023-01-21T15:05:03.658Z,100867.56
2023-01-21T15:07:38.675Z,100863.31
2023-01-21T15:10:20.661Z,100871.75
2023-01-21T15:12:55.914Z,100876.84
2023-01-21T15:15:35.334Z,100884.56
2023-01-21T15:18:26.754Z,100887.03
2023-01-21T15:21:00.185Z,100888.66
2023-01-21T15:23:31.629Z,100894.66
2023-01-21T15:26:10.255Z,100893.88
2023-01-21T15:28:56.635Z,100897.34
2023-01-21T15:31:25.493Z,100898.22
2023-01-21T15:33:57.819Z,100897.19
2023-01-21T15:36:31.525Z,100909.25
2023-01-21T15:39:03.240Z,100914.22
2023-01-21T15:41:52.149Z,100919.44
2023-01-21T15:44:38.688Z,100912.63
2023-01-21T15:47:25.798Z,100920.19
2023-01-21T15:50:02.154Z,100916.09
2023-01-21T15:52:55.524Z,100919.44
2023-01-21T15:55:56.997Z,100927.91
2023-01-21T15:58:59.115Z,100932.09
2023-01-21T16:01:40.447Z,100930.16
2023-01-21T16:04:26.698Z,100935.47
2023-01-21T16:06:58.025Z,100941.28
2023-01-21T16:09:48.299Z,100948.09
2023-01-21T16:12:39.644Z,100958.28
2023-01-21T16:15:26.100Z,100953.19
2023-01-21T16:18:03.646Z,100953.19
2023-01-21T16:20:32.656Z,100963.38
2023-01-21T16:23:05.334Z,100955.69
2023-01-21T16:25:33.439Z,100968.47
2023-01-21T16:28:01.155Z,100970.22
2023-01-21T16:30:31.137Z,100983.75
2023-01-21T16:33:15.810Z,100978.81
2023-01-21T16:35:43.496Z,100982.13
2023-01-21T16:38:19.895Z,100983.09
2023-01-21T16:40:50.218Z,100987.34
2023-01-21T16:43:29.815Z,100990.72
2023-01-21T16:46:11.925Z,100996.66
2023-01-21T16:48:40.285Z,100995.81
2023-01-21T16:51:19.351Z,101000.91
2023-01-21T16:53:47.440Z,100997.41
2023-01-21T16:56:27.249Z,101004.25
2023-01-21T16:58:58.985Z,101005.03
2023-01-21T17:01:30.322Z,101005.03
2023-01-21T17:04:01.614Z,101012.69
2023-01-21T17:06:32.197Z,101024.63
2023-01-21T17:09:05.455Z,101011.09
2023-01-21T17:11:35.302Z,101010.69
2023-01-21T17:14:10.381Z,101029.72
2023-01-21T17:16:42.345Z,101033.19
2023-01-21T17:19:26.115Z,101038.25
2023-01-21T17:21:59.173Z,101015.03
2023-01-21T17:24:37.722Z,101049.19
2023-01-21T17:27:22.298Z,101051.81
2023-01-21T17:29:50.285Z,101052.63
2023-01-21T17:32:35.209Z,101053.28
2023-01-21T17:35:13.682Z,101068.69
2023-01-21T17:37:51.965Z,101066.28
2023-01-21T17:40:40.701Z,101071.97
2023-01-21T17:43:26.499Z,101066.69
2023-01-21T17:45:57.749Z,101071.91
2023-01-21T17:48:53.936Z,101097.50
2023-01-21T17:51:26.772Z,101095.91
2023-01-21T17:54:01.557Z,101088.78
2023-01-21T17:56:39.873Z,101107.69
2023-01-21T17:59:35.189Z,101119.59
2023-01-21T18:02:04.897Z,101109.41
2023-01-21T18:04:33.115Z,101126.44
2023-01-21T18:07:01.345Z,101107.25
2023-01-21T18:09:30.926Z,101135.00
2023-01-21T18:11:59.268Z,101143.44
2023-01-21T18:14:27.506Z,101143.44
2023-01-21T18:16:56.002Z,101150.28
2023-01-21T18:19:33.610Z,101143.44
2023-01-21T18:22:03.447Z,101145.03
2023-01-21T18:24:32.100Z,101146.81
2023-01-21T18:27:05.789Z,101158.72
2023-01-21T18:29:39.456Z,101148.53
2023-01-21T18:32:07.764Z,101157.13
2023-01-21T18:34:35.400Z,101158.00
2023-01-21T18:37:04.234Z,101162.34
2023-01-21T18:39:32.398Z,101172.53
2023-01-21T18:42:00.295Z,101179.34
2023-01-21T18:44:28.445Z,101177.63
2023-01-21T18:46:57.668Z,101172.53
2023-01-21T18:49:28.228Z,101177.50
2023-01-21T18:51:56.247Z,101174.13
2023-01-21T18:54:24.405Z,101181.69
2023-01-21T18:56:52.985Z,101174.13
2023-01-21T18:59:22.841Z,101173.19
2023-01-21T19:01:51.241Z,101167.00
2023-01-21T19:04:19.512Z,101177.50
2023-01-21T19:06:48.306Z,101184.19
2023-01-21T19:09:25.129Z,101187.53
2023-01-21T19:11:53.539Z,101189.28
2023-01-21T19:14:21.541Z,101189.28
2023-01-21T19:16:49.525Z,101190.13
2023-01-21T19:19:19.273Z,101192.63
2023-01-21T19:21:47.330Z,101186.44
2023-01-21T19:24:15.136Z,101197.72
2023-01-21T19:26:43.725Z,101196.81
2023-01-21T19:29:17.005Z,101199.44
2023-01-21T19:31:45.130Z,101192.63
2023-01-21T19:34:13.268Z,101203.69
2023-01-21T19:36:41.477Z,101206.13
2023-01-21T19:39:22.407Z,101209.50
2023-01-21T19:42:03.435Z,101219.69
2023-01-21T19:44:35.656Z,101217.91
2023-01-21T19:47:03.859Z,101223.00
2023-01-21T19:49:31.906Z,101230.59
2023-01-21T19:51:59.865Z,101236.53
2023-01-21T19:54:27.795Z,101238.28
2023-01-21T19:56:55.751Z,101243.38
2023-01-21T19:59:23.807Z,101247.69
2023-01-21T20:01:51.855Z,101249.28
2023-01-21T20:04:19.946Z,101251.81
2023-01-21T20:06:48.138Z,101262.81
2023-01-21T20:09:18.064Z,101256.09
2023-01-21T20:11:45.778Z,101260.28
2023-01-21T20:14:14.026Z,101256.78
2023-01-21T20:16:48.562Z,101272.19
2023-01-21T20:19:19.826Z,101260.75
2023-01-21T20:21:59.840Z,101267.91
2023-01-21T20:24:30.681Z,101284.03
2023-01-21T20:27:00.208Z,101275.41
2023-01-21T20:29:28.025Z,101285.78
2023-01-21T20:31:56.198Z,101273.50
2023-01-21T20:34:24.511Z,101289.19
2023-01-21T20:36:52.855Z,101276.25
2023-01-21T20:39:20.715Z,101295.00
2023-01-21T20:41:49.359Z,101287.16
2023-01-21T20:44:17.405Z,101299.38
2023-01-21T20:46:46.334Z,101292.13
2023-01-21T20:49:14.949Z,101299.94
2023-01-21T20:51:43.137Z,101303.59
2023-01-21T20:54:12.807Z,101311.31
2023-01-21T20:56:40.980Z,101316.25
2023-01-21T20:59:11.305Z,101312.91
2023-01-21T21:01:40.138Z,101326.59
2023-01-21T21:04:08.195Z,101323.97
2023-01-21T21:06:36.476Z,101326.72
2023-01-21T21:09:04.458Z,101309.28
2023-01-21T21:11:32.125Z,101324.81
2023-01-21T21:14:02.022Z,101336.78
2023-01-21T21:16:32.250Z,101336.78
2023-01-21T21:19:00.882Z,101332.56
2023-01-21T21:21:28.475Z,101336.78
2023-01-21T21:23:55.860Z,101313.94
2023-01-21T21:26:25.981Z,101346.97
2023-01-21T21:28:57.909Z,101348.47
2023-01-21T21:31:26.697Z,101355.38
2023-01-21T21:33:54.016Z,101352.81
2023-01-21T21:36:24.878Z,101352.91
2023-01-21T21:38:56.037Z,101360.47
2023-01-21T21:41:44.734Z,101362.22
2023-01-21T21:44:12.570Z,101367.31
2023-01-21T21:47:00.632Z,101363.81
2023-01-21T21:49:29.043Z,101367.31
2023-01-21T21:51:57.273Z,101368.91
2023-01-21T21:54:24.602Z,101366.22
2023-01-21T21:56:52.012Z,101374.88
2023-01-21T21:59:19.374Z,101374.88
2023-01-21T22:01:46.726Z,101370.66
2023-01-21T22:04:14.171Z,101372.41
2023-01-21T22:06:41.532Z,101371.53
2023-01-21T22:09:09.240Z,101367.19
2023-01-21T22:11:36.524Z,101385.91
2023-01-21T22:14:04.560Z,101385.06
2023-01-21T22:16:32.694Z,101391.81
2023-01-21T22:19:00.738Z,101392.63
2023-01-21T22:21:33.120Z,101397.88
2023-01-21T22:24:02.774Z,101398.00
2023-01-21T22:26:30.731Z,101404.69
2023-01-21T22:28:58.387Z,101408.09
2023-01-21T22:31:28.678Z,101412.19
2023-01-21T22:33:57.540Z,101409.50
2023-01-21T22:36:26.637Z,101409.63
2023-01-21T22:38:54.267Z,101409.72
2023-01-21T22:41:23.941Z,101409.78
2023-01-21T22:43:52.000Z,101413.28
2023-01-21T22:46:22.844Z,101419.19
2023-01-21T22:48:50.590Z,101406.28
2023-01-21T22:51:19.734Z,101419.97
2023-01-21T22:53:48.067Z,101419.97
2023-01-21T22:56:17.641Z,101431.91
2023-01-21T22:58:45.517Z,101419.81
2023-01-21T23:01:31.841Z,101428.56
2023-01-21T23:04:00.477Z,101432.84
2023-01-21T23:06:32.526Z,101428.56
2023-01-21T23:09:24.651Z,101443.03
2023-01-21T23:12:04.848Z,101445.44
2023-01-21T23:17:48.616Z,101446.28
2023-01-21T23:20:34.295Z,101454.03
2023-01-21T23:23:01.651Z,101450.47
2023-01-21T23:25:29.247Z,101463.34
2023-01-21T23:27:56.495Z,101449.75
2023-01-21T23:30:23.824Z,101456.41
2023-01-21T23:32:51.030Z,101464.94
2023-01-21T23:35:19.495Z,101449.66
2023-01-21T23:37:46.859Z,101458.09
2023-01-21T23:40:14.303Z,101460.56
2023-01-21T23:42:41.693Z,101426.63
2023-01-21T23:45:09.706Z,101464.22
2023-01-21T23:47:37.062Z,101452.09
2023-01-21T23:50:09.546Z,101465.94
2023-01-21T23:52:40.912Z,101444.69
2023-01-21T23:55:10.642Z,101477.81
2023-01-21T23:57:38.266Z,101483.69
